Latest Coastal Weather Observations for Cooktown

IDQ60701

Issued at 1:02 am EST Friday 5 March 2021 (issued every 10 minutes, with the page automatically refreshed every 10 minutes)

About coastal observations | Map of coastal stations | Coastal observations for QLD | Marine services | Other Formats
Station Details ID: 031209 Name: COOKTOWN AIRPORT Lat: -15.45 Lon: 145.19 Height: 4.8 m
Data from the previous 72 hours. | See also: Recent months at Cooktown
Date/Time
EST
Wind Sea
Height
m
Swell Vis
km
Cloud Weather Temp
°C
Press
MSL
hPa
Rain since
9am
mm
Dir  Spd
kts
Gust
kts
Height
m
Period
s
Dir
05/01:00am CALM 0 0 - - - - 10 Partly cloudy - 25.7 1005.0 0.2
05/12:30am CALM 0 0 - - - - 10 Partly cloudy - 25.6 1005.0 0.2
05/12:00am WNW 2 4 - - - - 10 Mostly cloudy - 25.9 1005.0 0.2
 
Date/Time
EST
Wind Sea
Height
m
Swell Vis
km
Cloud Weather Temp
°C
Press
MSL
hPa
Rain since
9am
mm
Dir  Spd
kts
Gust
kts
Height
m
Period
s
Dir
04/11:30pm WNW 4 5 - - - - 10 Partly cloudy - 25.9 1005.2 0.2
04/11:00pm W 3 5 - - - - 10 Cloudy - 26.3 1005.3 0.2
04/10:30pm WNW 4 5 - - - - 10 Partly cloudy - 26.3 1005.3 0.2
04/10:00pm CALM 0 0 - - - - 10 Partly cloudy - 26.3 1005.1 0.2
04/09:30pm E 4 5 - - - - 10 Cloudy - 26.3 1004.8 0.2
04/09:00pm SE 5 8 - - - - 10 Cloudy - 26.4 1004.8 0.2
04/08:30pm NE 3 4 - - - - 10 Cloudy - 26.8 1004.6 0.2
04/08:00pm CALM 0 0 - - - - 10 Partly cloudy - 26.4 1004.1 0.2
04/07:30pm E 5 6 - - - - 10 Partly cloudy - 26.8 1003.6 0.2
04/07:00pm E 5 8 - - - - 10 Partly cloudy - 27.4 1003.4 0.2
04/06:30pm SW 2 5 - - - - 10 Cloudy - 27.5 1002.8 0.2
04/06:00pm ESE 9 17 - - - - 10 Cloudy - 27.6 1002.1 0.2
04/05:30pm ESE 9 14 - - - - 10 Partly cloudy - 29.0 1002.0 0.2
04/05:00pm E 11 16 - - - - 10 Partly cloudy - 29.1 1001.0 0.2
04/04:30pm E 13 18 - - - - 10 - - 30.2 1000.7 0.2
04/04:00pm ENE 12 17 - - - - 10 Partly cloudy - 30.8 1000.2 0.2
04/03:30pm WSW 6 11 - - - - 10 - - 35.4 999.8 0.2
04/03:00pm WSW 7 11 - - - - 10 Mostly clear - 34.9 999.5 0.2
04/02:30pm WSW 8 13 - - - - 10 Partly cloudy - 34.8 999.7 0.2
04/02:00pm SW 9 15 - - - - 10 Partly cloudy - 35.1 1000.4 0.2
04/01:30pm SW 7 11 - - - - 10 - - 34.5 1000.9 0.2
04/01:00pm WSW 7 11 - - - - 10 - - 34.2 1001.5 0.2
04/12:30pm SW 6 12 - - - - 10 - - 34.5 1001.7 0.2
04/12:00pm WNW 8 11 - - - - 10 Mostly clear Recent precip. 33.2 1002.3 0.2
04/11:30am NW 9 12 - - - - 10 - - 32.3 1002.9 0.2
04/11:00am NW 6 10 - - - - 10 - - 30.9 1003.5 0.0
04/10:30am WNW 7 11 - - - - 10 - - 30.0 1003.5 0.0
04/10:00am WNW 6 9 - - - - 10 - - 30.0 1003.6 0.0
04/09:30am WNW 8 11 - - - - 10 Partly cloudy - 28.6 1003.8 0.0
04/09:00am WNW 4 7 - - - - 10 Partly cloudy - 28.2 1003.7 3.8
04/08:30am CALM 0 0 - - - - 10 Cloudy - 26.3 1003.5 3.8
04/08:00am CALM 0 1 - - - - 10 Cloudy - 25.4 1003.4 3.8
04/07:30am WSW 4 5 - - - - 10 Cloudy - 24.7 1003.1 3.8
04/07:00am CALM 0 0 - - - - 10 Cloudy - 24.3 1002.8 3.8
04/06:30am CALM 0 0 - - - - 10 Partly cloudy - 24.1 1002.3 3.8
04/06:00am CALM 0 0 - - - - 10 Cloudy - 24.0 1002.2 3.8
04/05:30am SE 3 4 - - - - 10 - - 24.1 1002.0 3.8
04/05:00am NW 4 5 - - - - 10 Partly cloudy - 24.2 1001.5 3.8
04/04:30am CALM 0 0 - - - - 10 Partly cloudy - 24.1 1001.5 3.6
04/04:00am CALM 0 0 - - - - 10 Partly cloudy - 24.0 1001.4 3.4
04/03:30am CALM 0 0 - - - - 10 Cloudy - 24.1 1001.3 3.4
04/03:00am CALM 0 0 - - - - 10 Cloudy Recent precip. 24.1 1001.3 3.4
04/02:30am WSW 4 8 - - - - 10 Partly cloudy - 24.4 1001.4 3.4
04/02:00am E 4 4 - - - - 10 Partly cloudy - 24.5 1001.8 3.0
04/01:30am CALM 0 0 - - - - 10 Partly cloudy - 24.6 1001.7 2.8
04/01:00am WNW 1 4 - - - - 10 Cloudy - 24.7 1001.9 2.8
04/12:30am WNW 2 4 - - - - 10 Cloudy - 24.6 1002.3 2.6
04/12:00am CALM 0 0 - - - - 10 Cloudy - 24.8 1002.6 2.6
 
Date/Time
EST
Wind Sea
Height
m
Swell Vis
km
Cloud Weather Temp
°C
Press
MSL
hPa
Rain since
9am
mm
Dir  Spd
kts
Gust
kts
Height
m
Period
s
Dir
03/11:30pm CALM 0 0 - - - - 10 Partly cloudy - 25.1 1002.7 2.6
03/11:00pm CALM 0 0 - - - - 10 Cloudy - 25.2 1003.0 2.6
03/10:30pm W 3 4 - - - - 10 Cloudy - 25.0 1003.0 2.6
03/10:00pm W 3 5 - - - - 10 Partly cloudy - 25.4 1003.1 2.6
03/09:30pm W 4 5 - - - - 10 Partly cloudy - 25.5 1003.1 2.6
03/09:00pm W 4 6 - - - - 10 Cloudy - 25.6 1003.0 2.6
03/08:30pm WNW 4 6 - - - - 10 Partly cloudy - 25.3 1002.5 2.6
03/08:00pm WNW 5 6 - - - - 10 Partly cloudy - 25.9 1002.3 2.6
03/07:30pm W 1 5 - - - - 10 Partly cloudy - 25.9 1002.3 2.6
03/07:00pm W 3 4 - - - - 10 Partly cloudy - 26.3 1002.1 2.6
03/06:30pm W 1 3 - - - - 10 Partly cloudy - 27.0 1001.7 2.6
03/06:00pm CALM 0 0 - - - - 10 Cloudy - 27.5 1001.1 2.6
03/05:30pm CALM 0 0 - - - - 10 Cloudy - 27.6 1000.8 2.6
03/05:00pm CALM 0 0 - - - - 10 Cloudy - 27.6 1000.5 2.6
03/04:30pm WSW 2 4 - - - - 10 Cloudy - 27.5 1000.3 2.6
03/04:00pm WNW 4 5 - - - - 10 Cloudy - 27.2 1000.3 2.6
03/03:30pm NNW 4 6 - - - - 10 Partly cloudy - 26.8 1000.3 2.6
03/03:00pm ENE 3 4 - - - - 10 Cloudy Recent precip. 26.6 1000.5 2.6
03/02:30pm ENE 4 5 - - - - 10 Partly cloudy - 26.5 1000.9 2.0
03/02:16pm WNW 1 5 - - - - 8 Partly cloudy - 26.8 1001.1 1.8
03/02:00pm CALM 0 0 - - - - 4 Partly cloudy - 27.2 1001.2 1.0
03/01:50pm WNW 1 4 - - - - 5 Partly cloudy - 27.4 1001.4 0.4
03/01:30pm WNW 4 5 - - - - 10 Cloudy - 27.7 1001.6 0.0
03/01:00pm WNW 3 4 - - - - 10 Partly cloudy - 27.9 1001.9 0.0
03/12:30pm W 3 5 - - - - 10 Cloudy - 27.6 1002.1 0.0
03/12:00pm W 5 6 - - - - 10 Mostly cloudy - 27.1 1002.7 0.0
03/11:30am W 5 10 - - - - 10 Partly cloudy - 27.2 1003.0 0.0
03/11:00am WSW 4 7 - - - - 10 Partly cloudy - 27.1 1003.2 0.0
03/10:30am SW 4 7 - - - - 10 Partly cloudy - 26.5 1003.7 0.0
03/10:00am WNW 3 5 - - - - 10 Cloudy - 25.5 1003.5 0.0
03/09:30am CALM 0 0 - - - - 10 Cloudy - 24.9 1003.5 0.0
03/09:00am CALM 0 0 - - - - 10 Cloudy Recent precip. 24.3 1003.4 18.6
03/08:30am WNW 2 4 - - - - 10 Cloudy - 23.9 1003.3 18.6
03/08:00am CALM 0 0 - - - - 10 Partly cloudy - 23.4 1003.2 18.2
03/07:48am S 1 4 - - - - 7 Partly cloudy - 23.5 1003.1 18.0
03/07:30am SW 1 5 - - - - 5 Partly cloudy - 23.2 1003.1 17.6
03/07:00am WNW 6 7 - - - - 3 Partly cloudy - 23.6 1002.7 12.8
03/06:55am W 5 7 - - - - 5 Partly cloudy - 23.7 1002.7 11.8
03/06:30am WSW 5 6 - - - - 10 Partly cloudy - 23.9 1002.3 11.0
03/06:00am WNW 4 5 - - - - 10 Cloudy Recent precip. 24.0 1002.2 11.0
03/05:30am W 4 6 - - - - 10 Partly cloudy - 23.9 1002.0 10.8
03/05:00am WSW 5 6 - - - - 10 Partly cloudy - 23.9 1002.1 10.8
03/04:30am WSW 5 7 - - - - 10 Partly cloudy - 23.8 1001.8 10.8
03/04:00am W 5 7 - - - - 10 Partly cloudy - 23.7 1001.5 10.8
03/03:30am - - - - - - - 10 - - 23.7 1001.9 10.6
03/03:13am WNW 7 11 - - - - 10 Partly cloudy - 23.6 1002.0 10.6
03/03:12am WNW 7 11 - - - - 10 Partly cloudy - 23.6 1002.0 10.6
03/03:00am W 5 8 - - - - 4 Cloudy Rain 23.5 1002.2 10.2
03/02:34am SSE 2 4 - - - - 5 Partly cloudy - 23.9 1002.8 8.8
03/02:30am S 2 4 - - - - 7 Cloudy - 24.0 1002.9 8.6
03/02:00am SW 5 10 - - - - 10 Partly cloudy - 24.4 1002.6 8.0
03/01:30am WSW 3 4 - - - - 10 Partly cloudy - 24.4 1003.0 8.0
03/01:00am W 4 5 - - - - 10 Partly cloudy - 24.4 1003.4 7.6
03/12:30am WSW 3 5 - - - - 10 Partly cloudy - 24.4 1003.7 7.6
03/12:00am WNW 3 5 - - - - 10 Cloudy Rain 24.6 1003.8 7.6
 
Date/Time
EST
Wind Sea
Height
m
Swell Vis
km
Cloud Weather Temp
°C
Press
MSL
hPa
Rain since
9am
mm
Dir  Spd
kts
Gust
kts
Height
m
Period
s
Dir
02/11:30pm NW 4 5 - - - - 10 Cloudy - 24.6 1004.2 7.4
02/11:00pm CALM 0 0 - - - - 10 Partly cloudy - 24.5 1004.3 7.4
02/10:30pm CALM 0 0 - - - - 10 Cloudy - 24.5 1004.2 7.4
02/10:00pm WNW 1 5 - - - - 10 Partly cloudy - 24.3 1003.9 7.4
02/09:30pm CALM 0 0 - - - - 10 Partly cloudy - 24.4 1003.3 7.4
02/09:00pm CALM 0 3 - - - - 10 Cloudy - 24.3 1003.1 7.4
02/08:30pm CALM 0 0 - - - - 10 Partly cloudy - 24.6 1003.4 7.4
02/08:00pm CALM 0 3 - - - - 10 Partly cloudy - 24.5 1003.5 7.4
02/07:30pm N 1 3 - - - - 10 Partly cloudy - 24.4 1003.3 7.4
02/07:00pm CALM 0 3 - - - - 10 Partly cloudy - 24.4 1002.9 7.4
02/06:30pm W 4 5 - - - - 10 Partly cloudy - 24.3 1002.6 7.4
02/06:00pm WNW 5 7 - - - - 7 Cloudy Rain 24.4 1002.2 7.4
02/05:38pm W 7 10 - - - - 9 Partly cloudy - 24.5 1002.2 6.8
02/05:30pm W 6 9 - - - - 7 Partly cloudy - 24.6 1002.2 6.8
02/05:06pm SSW 4 7 - - - - 5 Partly cloudy - 25.3 1002.4 4.2
02/05:02pm S 4 6 - - - - 10 Partly cloudy - 25.5 1002.2 3.6
02/05:00pm SSW 3 6 - - - - 10 Partly cloudy - 25.5 1002.2 3.6
02/04:30pm S 4 6 - - - - 3 Partly cloudy - 25.8 1001.7 2.8
02/04:18pm SSW 5 9 - - - - 5 Partly cloudy - 26.3 1001.7 1.2
02/04:00pm S 3 5 - - - - 10 Partly cloudy - 27.6 1001.5 1.0
02/03:30pm WSW 6 10 - - - - 10 Partly cloudy - 27.8 1001.3 1.0
02/03:00pm WSW 9 13 - - - - 10 Cloudy Recent precip. 28.2 1001.3 1.0
02/02:30pm WSW 11 16 - - - - 10 Partly cloudy - 27.9 1001.4 1.0
02/02:00pm WSW 8 16 - - - - 10 Partly cloudy - 28.4 1001.6 0.8
02/01:30pm W 7 12 - - - - 10 Partly cloudy - 27.5 1002.0 0.8
02/01:00pm W 5 7 - - - - 10 Partly cloudy - 26.6 1002.5 0.8
02/12:30pm WSW 5 7 - - - - 7 Partly cloudy - 26.4 1002.8 0.8
02/12:25pm WSW 5 7 - - - - 10 Partly cloudy - 26.6 1002.8 0.6
02/12:11pm WSW 3 5 - - - - 5 Partly cloudy - 27.0 1002.9 0.6
02/12:00pm WSW 5 8 - - - - 10 Cloudy - 27.2 1003.0 0.0
02/11:30am WSW 6 10 - - - - 10 Partly cloudy - 26.6 1003.2 0.0
02/11:00am WSW 7 12 - - - - 10 Partly cloudy - 26.8 1003.4 0.0
02/10:30am W 5 11 - - - - 10 Partly cloudy - 26.3 1003.6 0.0
02/10:00am W 5 6 - - - - 10 Cloudy - 25.4 1004.1 0.0
02/09:30am WSW 5 8 - - - - 10 Partly cloudy - 24.3 1004.3 0.0
02/09:00am W 5 8 - - - - 8 Cloudy Rain 23.5 1004.2 19.8
02/08:30am WNW 5 7 - - - - 10 Partly cloudy - 23.7 1004.1 19.0
02/08:00am W 4 6 - - - - 10 Partly cloudy - 23.3 1003.9 18.6
02/07:30am W 5 6 - - - - 10 Partly cloudy - 22.8 1003.8 18.6
02/07:00am W 4 5 - - - - 10 Cloudy - 22.6 1003.6 18.6
02/06:30am WSW 3 5 - - - - 10 Partly cloudy - 22.9 1003.4 18.2
02/06:00am W 5 8 - - - - 10 Cloudy Rain 23.0 1002.8 18.0
02/05:30am WNW 5 7 - - - - 10 Cloudy - 23.2 1002.5 17.2
02/05:00am W 5 8 - - - - 7 Partly cloudy - 23.4 1002.1 16.0
02/04:30am W 6 10 - - - - 9 Partly cloudy - 23.5 1002.0 14.6
02/04:00am W 4 7 - - - - 9 Partly cloudy - 23.6 1002.0 13.8
02/03:30am WSW 6 8 - - - - 8 Partly cloudy - 23.5 1002.0 12.4
02/03:00am WSW 5 8 - - - - 8 Cloudy Rain 23.6 1001.9 10.8
02/02:34am WSW 5 8 - - - - 10 Partly cloudy - 23.6 1002.1 9.6
02/02:30am WSW 5 7 - - - - 10 Cloudy - 23.6 1002.1 9.6
02/02:14am WSW 4 6 - - - - 5 Partly cloudy - 23.5 1002.3 8.8
02/02:00am W 4 6 - - - - 6 Partly cloudy - 23.5 1002.3 8.0
02/01:58am W 4 5 - - - - 6 Partly cloudy - 23.5 1002.3 8.0
02/01:30am WNW 4 6 - - - - 5 Partly cloudy - 23.7 1002.6 6.0
02/01:20am W 3 5 - - - - 5 Partly cloudy - 23.8 1002.6 5.2

Other formats

Comma delimited format used in spreadsheet applications
http://www.bom.gov.au/fwo/IDQ60701/IDQ60701.95283.axf

JavaScript Object Notation format (JSON) in row-major order
http://www.bom.gov.au/fwo/IDQ60701/IDQ60701.95283.json

Data quality

Most of these data are generated automatically and are frequently updated. Quality checks on data are not normally performed. It is possible for incorrect values to appear. Refer to information at About Latest Weather Observations and please check the disclaimer before using these data.